Archival Weather

Norman Y Mineta San Jose Intl

San Jose, California (KSJC)

Report from: Friday, February 2, 2024 4:53 AM PST
Current time: Friday, June 21, 2024 12:25 AM PDT

Current weather – Weather history – Daily summaries
Weather forecast

Present weatherLight rain, mist
Temperature10.6°C (51.1°F)
Dew point8.3°C (46.9°F)
Winds 8 kts (4.1 m/s, 9.2 mph) Southeast (130°)
Visibility5 mi. (8 km)
Clouds Scattered clouds 3,200 ft. (975 m)
Ceiling: Overcast 4,300 ft. (1,311 m)
Altimeter29.84 in.Hg (1010 mB)
PrecipitiationTrace
Precip. events Rain ended 12:06 PM
Rain began 12:13 PM
Relative humidity86 %
Density altitude-272 ft. (-83 m)
Sea-level pressure101.0 kPa (1010 mB, 29.84 in.Hg)
Remarks Fully automated report
Automated weather observing station with precipitation discriminator
Flight conditions Visual Meteorological Conditions
Raw dataKSJC 021253Z AUTO 13008KT 5SM -RA BR SCT032 OVC043 11/08 A2984 RMK AO2 RAE06B13 SLP104 P0000 T01060083
An error has occurred. This application may no longer respond until reloaded. Reload 🗙